Time;durP1;ratioP1;P1;durP2;ratioP2;P2;SDS_P1;SDS_P2;PMS_P1;PMS_P2;Temp;Humidity;BMP_temperature;BMP_pressure;BME280_temperature;BME280_humidity;BME280_pressure;Samples;Min_cycle;Max_cycle;Signal;HPM_P1;HPM_P2
2023/05/18 00:00:43;;;;;;;;;;;;;;;20.12;41.88;102858.53;5050002;28;19913;-67
2023/05/18 00:03:09;;;;;;;;;;;;;;;20.11;41.98;102859.53;5057876;28;19913;-67
2023/05/18 00:05:34;;;;;;;;;;;;;;;20.10;42.14;102860.53;5052394;28;19936;-67
2023/05/18 00:08:00;;;;;;;;;;;;;;;20.08;41.91;102866.03;5046760;28;19955;-67
2023/05/18 00:10:25;;;;;;;;;;;;;;;20.05;42.16;102863.63;5052961;28;19941;-67
2023/05/18 00:12:50;;;;;;;;;;;;;;;20.05;42.06;102857.34;5051194;28;19921;-67
2023/05/18 00:15:15;;;;;;;;;;;;;;;20.03;41.84;102859.31;5047816;28;19917;-67
2023/05/18 00:17:41;;;;;;;;;;;;;;;20.03;41.94;102862.03;5055582;28;19917;-67
2023/05/18 00:20:09;;;;;;;;;;;;;;;20.01;41.90;102864.88;5053053;28;20590;-67
2023/05/18 00:22:34;;;;;;;;;;;;;;;20.00;41.96;102856.88;5051633;28;19971;-67
2023/05/18 00:24:59;;;;;;;;;;;;;;;19.98;42.08;102857.88;5058606;28;19917;-67
2023/05/18 00:27:24;;;;;;;;;;;;;;;19.96;41.78;102849.06;5051241;28;19942;-67
2023/05/18 00:29:50;;;;;;;;;;;;;;;19.95;41.82;102847.31;5044919;28;19917;-67
2023/05/18 00:32:15;;;;;;;;;;;;;;;19.94;41.91;102856.41;5053667;28;20497;-67
2023/05/18 00:34:40;;;;;;;;;;;;;;;19.93;41.86;102848.44;5049744;28;20681;-67
2023/05/18 00:37:05;;;;;;;;;;;;;;;19.92;41.71;102860.22;5052331;28;19913;-67
2023/05/18 00:39:30;;;;;;;;;;;;;;;19.90;41.74;102860.34;5050390;28;19917;-67
2023/05/18 00:41:55;;;;;;;;;;;;;;;19.90;41.73;102859.50;5049021;28;19917;-67
2023/05/18 00:44:21;;;;;;;;;;;;;;;19.88;41.90;102859.63;5050573;28;19917;-67
2023/05/18 00:46:46;;;;;;;;;;;;;;;19.87;41.96;102866.00;5052690;28;19976;-67
2023/05/18 00:49:11;;;;;;;;;;;;;;;19.86;41.79;102866.13;5047956;28;19917;-67
2023/05/18 00:51:36;;;;;;;;;;;;;;;19.84;41.78;102865.41;5057175;28;19920;-67
2023/05/18 00:54:02;;;;;;;;;;;;;;;19.84;41.89;102868.13;5034745;28;19939;-67
2023/05/18 00:56:27;;;;;;;;;;;;;;;19.83;41.42;102860.97;5035166;28;19995;-67
2023/05/18 00:58:54;;;;;;;;;;;;;;;19.80;41.54;102862.13;5056161;28;19927;-67
2023/05/18 01:01:23;;;;;;;;;;;;;;;19.79;41.93;102863.06;5050380;28;19973;-67
2023/05/18 01:03:48;;;;;;;;;;;;;;;19.78;41.64;102861.38;5033956;28;19913;-67
2023/05/18 01:06:13;;;;;;;;;;;;;;;19.78;41.93;102865.91;5049011;28;19939;-67
2023/05/18 01:08:40;;;;;;;;;;;;;;;19.75;41.61;102867.00;5049713;28;19913;-67
2023/05/18 01:11:20;;;;;;;;;;;;;;;19.74;41.65;102868.00;5032356;28;19913;-67
2023/05/18 01:13:57;;;;;;;;;;;;;;;19.73;41.78;102869.00;5050912;28;19943;-67
2023/05/18 01:16:26;;;;;;;;;;;;;;;19.71;41.75;102863.72;5042528;28;19917;-67
2023/05/18 01:18:57;;;;;;;;;;;;;;;19.69;41.84;102862.13;5037962;28;19933;-67
2023/05/18 01:21:27;;;;;;;;;;;;;;;19.68;41.58;102861.28;5050425;28;19917;-67
2023/05/18 01:23:59;;;;;;;;;;;;;;;19.68;41.54;102868.53;5037642;28;19923;-67
2023/05/18 01:26:31;;;;;;;;;;;;;;;19.66;41.43;102871.31;5055441;28;19996;-67
2023/05/18 01:28:57;;;;;;;;;;;;;;;19.64;41.77;102870.59;5051849;28;20011;-67
2023/05/18 01:31:22;;;;;;;;;;;;;;;19.63;41.77;102871.59;5052733;28;20308;-67
2023/05/18 01:33:48;;;;;;;;;;;;;;;19.63;41.49;102868.03;5030835;28;19916;-67
2023/05/18 01:36:13;;;;;;;;;;;;;;;19.61;41.89;102870.84;5048440;28;19921;-67
2023/05/18 01:38:38;;;;;;;;;;;;;;;19.61;41.79;102868.16;5050704;28;19932;-67
2023/05/18 01:41:23;;;;;;;;;;;;;;;19.59;41.76;102866.53;5050773;28;19931;-66
2023/05/18 01:44:05;;;;;;;;;;;;;;;19.59;41.83;102874.63;5033155;28;19917;-67
2023/05/18 01:46:30;;;;;;;;;;;;;;;19.57;41.75;102882.00;5054825;28;19925;-67
2023/05/18 01:48:56;;;;;;;;;;;;;;;19.54;41.75;102883.13;5054780;28;20369;-67
2023/05/18 01:51:21;;;;;;;;;;;;;;;19.53;41.53;102875.97;5052257;28;19920;-67
2023/05/18 01:53:50;;;;;;;;;;;;;;;19.53;41.64;102888.63;5037322;28;19917;-67
2023/05/18 01:56:15;;;;;;;;;;;;;;;19.51;41.73;102877.97;5031978;28;20269;-67
2023/05/18 01:58:40;;;;;;;;;;;;;;;19.51;41.84;102877.09;5052179;28;19921;-67
2023/05/18 02:01:05;;;;;;;;;;;;;;;19.49;41.39;102879.91;5048401;28;19924;-67
2023/05/18 02:03:32;;;;;;;;;;;;;;;19.47;41.83;102874.66;5045030;28;19913;-67
2023/05/18 02:05:57;;;;;;;;;;;;;;;19.47;41.46;102885.44;5050239;28;20294;-67
2023/05/18 02:08:22;;;;;;;;;;;;;;;19.45;41.44;102884.72;5050171;28;19924;-67
2023/05/18 02:10:47;;;;;;;;;;;;;;;19.45;41.71;102884.72;5048591;28;19912;-67
2023/05/18 02:13:12;;;;;;;;;;;;;;;19.43;41.39;102883.97;5048588;28;19974;-67
2023/05/18 02:15:37;;;;;;;;;;;;;;;19.42;41.66;102881.41;5050778;28;20004;-67
2023/05/18 02:18:03;;;;;;;;;;;;;;;19.41;41.38;102885.06;5053282;28;19966;-67
2023/05/18 02:20:32;;;;;;;;;;;;;;;19.40;41.42;102886.91;5056427;28;19928;-67
2023/05/18 02:22:57;;;;;;;;;;;;;;;19.38;41.69;102883.50;5048649;28;19917;-67
2023/05/18 02:25:22;;;;;;;;;;;;;;;19.38;41.65;102888.03;5055552;28;19917;-67
2023/05/18 02:27:48;;;;;;;;;;;;;;;19.37;41.76;102880.91;5050285;28;19974;-67
2023/05/18 02:30:13;;;;;;;;;;;;;;;19.35;41.45;102877.47;5048052;28;19980;-67
2023/05/18 02:32:38;;;;;;;;;;;;;;;19.34;41.45;102882.03;5052302;28;19917;-67
2023/05/18 02:35:04;;;;;;;;;;;;;;;19.33;41.48;102882.16;5048610;28;20432;-67
2023/05/18 02:37:33;;;;;;;;;;;;;;;19.31;41.66;102882.25;5048392;28;20321;-67
2023/05/18 02:39:58;;;;;;;;;;;;;;;19.31;41.41;102876.00;5047650;28;19943;-67
2023/05/18 02:42:23;;;;;;;;;;;;;;;19.29;41.62;102876.16;5052139;28;20294;-67
2023/05/18 02:44:49;;;;;;;;;;;;;;;19.28;41.40;102869.00;5049167;28;19924;-67
2023/05/18 02:47:14;;;;;;;;;;;;;;;19.28;41.49;102870.84;5056558;28;20433;-67
2023/05/18 02:49:39;;;;;;;;;;;;;;;19.25;41.72;102866.59;5055184;28;19924;-67
2023/05/18 02:52:05;;;;;;;;;;;;;;;19.25;41.50;102876.53;5055025;28;19921;-67
2023/05/18 02:54:30;;;;;;;;;;;;;;;19.23;41.51;102876.63;5056653;28;19917;-67
2023/05/18 02:56:57;;;;;;;;;;;;;;;19.22;41.56;102870.38;5051795;28;20266;-67
2023/05/18 02:59:22;;;;;;;;;;;;;;;19.21;41.65;102873.19;5053951;28;19921;-67
2023/05/18 03:01:48;;;;;;;;;;;;;;;19.20;41.53;102866.97;5051175;28;19923;-67
2023/05/18 03:04:13;;;;;;;;;;;;;;;19.19;41.46;102870.59;5051101;28;20437;-67
2023/05/18 03:06:39;;;;;;;;;;;;;;;19.18;41.47;102862.66;5051825;28;19917;-67
2023/05/18 03:09:04;;;;;;;;;;;;;;;19.15;41.38;102869.13;5054409;28;19920;-67
2023/05/18 03:11:29;;;;;;;;;;;;;;;19.16;41.35;102867.31;5051799;28;19913;-67
2023/05/18 03:13:54;;;;;;;;;;;;;;;19.14;41.28;102864.72;5052776;28;19928;-67
2023/05/18 03:16:19;;;;;;;;;;;;;;;19.12;41.31;102864.00;5055956;28;19921;-67
2023/05/18 03:18:44;;;;;;;;;;;;;;;19.12;41.44;102864.00;5054486;28;20015;-67
2023/05/18 03:21:12;;;;;;;;;;;;;;;19.11;41.39;102873.06;5058630;28;20350;-67
2023/05/18 03:23:37;;;;;;;;;;;;;;;19.09;41.28;102866.94;5051317;28;19948;-67
2023/05/18 03:26:02;;;;;;;;;;;;;;;19.09;41.44;102879.56;5055611;28;19936;-67
2023/05/18 03:28:28;;;;;;;;;;;;;;;19.07;41.54;102871.59;5051601;28;19936;-67
2023/05/18 03:30:53;;;;;;;;;;;;;;;19.08;41.24;102869.78;5051596;28;19984;-67
2023/05/18 03:33:19;;;;;;;;;;;;;;;19.06;41.29;102875.28;5052096;28;19981;-67
2023/05/18 03:35:44;;;;;;;;;;;;;;;19.05;41.20;102876.25;5053886;28;20354;-67
2023/05/18 03:38:09;;;;;;;;;;;;;;;19.05;41.47;102872.72;5049013;28;19924;-67
2023/05/18 03:40:35;;;;;;;;;;;;;;;19.03;41.43;102877.34;5053072;28;19917;-67
2023/05/18 03:43:00;;;;;;;;;;;;;;;19.01;41.34;102880.16;5054849;28;20620;-67
2023/05/18 03:45:25;;;;;;;;;;;;;;;19.01;41.49;102873.94;5051206;28;19944;-67
2023/05/18 03:47:51;;;;;;;;;;;;;;;18.98;41.39;102873.19;5059339;28;19920;-67
2023/05/18 03:50:16;;;;;;;;;;;;;;;18.98;41.58;102875.88;5051869;28;19913;-67
2023/05/18 03:52:43;;;;;;;;;;;;;;;18.97;41.38;102874.16;5047400;28;19924;-67
2023/05/18 03:55:08;;;;;;;;;;;;;;;18.96;41.38;102880.53;5054079;28;19966;-67
2023/05/18 03:57:33;;;;;;;;;;;;;;;18.95;41.45;102884.22;5045578;28;19913;-67
2023/05/18 03:59:58;;;;;;;;;;;;;;;18.94;41.48;102877.09;5051495;28;19976;-67
2023/05/18 04:02:24;;;;;;;;;;;;;;;18.93;41.33;102888.84;5050472;28;19913;-67
2023/05/18 04:04:52;;;;;;;;;;;;;;;18.92;41.23;102887.16;5049890;28;19917;-68
2023/05/18 04:07:20;;;;;;;;;;;;;;;18.92;41.28;102891.69;5049825;28;19940;-67
2023/05/18 04:09:46;;;;;;;;;;;;;;;18.92;41.17;102886.28;5054668;28;19936;-68
2023/05/18 04:12:11;;;;;;;;;;;;;;;18.89;41.35;102895.47;5048935;28;19913;-67
2023/05/18 04:14:36;;;;;;;;;;;;;;;18.90;41.25;102890.94;5054471;28;19921;-67
2023/05/18 04:17:05;;;;;;;;;;;;;;;18.88;41.43;102890.22;5053729;28;20381;-67
2023/05/18 04:19:33;;;;;;;;;;;;;;;18.88;41.18;102895.59;5053769;28;19921;-67
2023/05/18 04:21:58;;;;;;;;;;;;;;;18.88;41.23;102892.91;5053792;28;19980;-68
2023/05/18 04:24:25;;;;;;;;;;;;;;;18.86;41.17;102893.03;5050601;28;19919;-68
2023/05/18 04:26:51;;;;;;;;;;;;;;;18.85;41.19;102899.38;5050783;28;20480;-68
2023/05/18 04:29:16;;;;;;;;;;;;;;;18.85;41.37;102896.69;5047991;28;19913;-68
2023/05/18 04:31:43;;;;;;;;;;;;;;;18.85;41.19;102898.53;5053079;28;19913;-68
2023/05/18 04:34:08;;;;;;;;;;;;;;;18.84;41.39;102903.06;5049407;28;19919;-68
2023/05/18 04:36:33;;;;;;;;;;;;;;;18.84;41.34;102905.75;5055145;28;19917;-68
2023/05/18 04:39:02;;;;;;;;;;;;;;;18.83;41.53;102909.44;5049158;28;19928;-68
2023/05/18 04:41:27;;;;;;;;;;;;;;;18.84;41.60;102910.28;5054361;28;20046;-68
2023/05/18 04:43:52;;;;;;;;;;;;;;;18.83;41.54;102905.88;5053940;28;19921;-68
2023/05/18 04:46:17;;;;;;;;;;;;;;;18.82;41.67;102907.72;5049885;28;19913;-69
2023/05/18 04:48:43;;;;;;;;;;;;;;;18.83;41.92;102913.97;5056547;28;19917;-70
2023/05/18 04:51:08;;;;;;;;;;;;;;;18.82;41.84;102918.50;5049933;28;20016;-69
2023/05/18 04:53:33;;;;;;;;;;;;;;;18.84;42.16;102918.38;5050414;28;19913;-69
2023/05/18 04:56:01;;;;;;;;;;;;;;;18.82;42.12;102918.50;5050802;28;19917;-69
2023/05/18 04:58:27;;;;;;;;;;;;;;;18.83;42.25;102919.38;5050107;28;19917;-70
2023/05/18 05:00:52;;;;;;;;;;;;;;;18.84;42.34;102929.16;5050127;28;19920;-69
2023/05/18 05:03:17;;;;;;;;;;;;;;;18.82;42.32;102926.59;5050685;28;19913;-70
2023/05/18 05:05:42;;;;;;;;;;;;;;;18.83;42.56;102928.31;5049600;28;19917;-70
2023/05/18 05:08:07;;;;;;;;;;;;;;;18.83;42.18;102931.00;5049499;28;20013;-70
2023/05/18 05:10:33;;;;;;;;;;;;;;;18.83;42.26;102925.59;5053903;28;20285;-72
2023/05/18 05:12:58;;;;;;;;;;;;;;;18.83;42.34;102925.59;5047889;28;19921;-70
2023/05/18 05:15:23;;;;;;;;;;;;;;;18.83;42.40;102930.16;5058700;28;19924;-70
2023/05/18 05:17:48;;;;;;;;;;;;;;;18.82;42.52;102929.28;5041078;28;19980;-70
2023/05/18 05:20:14;;;;;;;;;;;;;;;18.83;42.61;102930.16;5048240;28;20074;-71
2023/05/18 05:22:39;;;;;;;;;;;;;;;18.82;42.48;102931.97;5053033;28;19913;-72
2023/05/18 05:25:05;;;;;;;;;;;;;;;18.82;42.43;102931.97;5049251;28;19913;-71
2023/05/18 05:27:30;;;;;;;;;;;;;;;18.82;42.52;102934.69;5048368;28;20404;-71
2023/05/18 05:29:55;;;;;;;;;;;;;;;18.81;42.44;102938.31;5047613;28;20680;-71
2023/05/18 05:32:20;;;;;;;;;;;;;;;18.82;42.42;102936.50;5033495;28;19917;-70
2023/05/18 05:34:46;;;;;;;;;;;;;;;18.82;42.58;102940.06;5048574;28;19936;-70
2023/05/18 05:37:12;;;;;;;;;;;;;;;18.82;42.63;102940.06;5050016;28;20043;-70
2023/05/18 05:39:37;;;;;;;;;;;;;;;18.81;42.69;102935.63;5055422;28;19924;-72
2023/05/18 05:42:02;;;;;;;;;;;;;;;18.82;42.65;102929.28;5052173;28;19936;-72
2023/05/18 05:44:27;;;;;;;;;;;;;;;18.82;42.70;102931.09;5050895;28;19957;-72
2023/05/18 05:46:53;;;;;;;;;;;;;;;18.81;42.71;102927.53;5047978;28;19917;-72
2023/05/18 05:49:18;;;;;;;;;;;;;;;18.81;42.74;102932.09;5053425;28;19912;-72
2023/05/18 05:51:44;;;;;;;;;;;;;;;18.81;42.81;102934.78;5049409;28;19957;-71
2023/05/18 05:54:09;;;;;;;;;;;;;;;18.81;42.81;102938.31;5047594;28;20352;-72
2023/05/18 05:56:34;;;;;;;;;;;;;;;18.82;42.65;102936.50;5052330;28;20416;-71
2023/05/18 05:58:59;;;;;;;;;;;;;;;18.81;42.75;102932.94;5055446;28;19968;-70
2023/05/18 06:01:25;;;;;;;;;;;;;;;18.82;42.80;102931.09;5048567;28;19920;-71
2023/05/18 06:03:50;;;;;;;;;;;;;;;18.80;42.58;102944.69;5035717;28;19917;-70
2023/05/18 06:06:16;;;;;;;;;;;;;;;18.81;42.77;102937.47;5049918;28;19917;-71
2023/05/18 06:08:41;;;;;;;;;;;;;;;18.80;42.69;102941.16;5053370;28;19917;-70
2023/05/18 06:11:06;;;;;;;;;;;;;;;18.80;42.57;102942.00;5054626;28;19942;-70
2023/05/18 06:13:31;;;;;;;;;;;;;;;18.80;42.60;102938.47;5054119;28;19921;-71
2023/05/18 06:15:57;;;;;;;;;;;;;;;18.80;42.81;102941.16;5038642;28;19913;-71
2023/05/18 06:18:22;;;;;;;;;;;;;;;18.80;42.77;102935.75;5048906;28;19921;-71
2023/05/18 06:20:47;;;;;;;;;;;;;;;18.80;42.84;102941.16;5054776;28;19912;-71
2023/05/18 06:23:12;;;;;;;;;;;;;;;18.80;42.82;102943.84;5040233;28;19928;-71
2023/05/18 06:25:37;;;;;;;;;;;;;;;18.79;42.81;102943.00;5056882;28;19916;-71
2023/05/18 06:28:03;;;;;;;;;;;;;;;18.80;42.76;102954.63;5052859;28;19928;-70
2023/05/18 06:30:28;;;;;;;;;;;;;;;18.80;42.63;102960.03;5055908;28;19945;-70
2023/05/18 06:32:53;;;;;;;;;;;;;;;18.79;42.82;102948.38;5055373;28;19979;-70
2023/05/18 06:35:18;;;;;;;;;;;;;;;18.80;42.83;102957.31;5053974;28;20019;-70
2023/05/18 06:37:43;;;;;;;;;;;;;;;18.80;42.90;102954.63;5055856;28;19921;-70
2023/05/18 06:40:09;;;;;;;;;;;;;;;18.79;42.86;102955.63;5056499;28;19917;-71
2023/05/18 06:42:35;;;;;;;;;;;;;;;18.81;42.88;102956.34;5056753;28;20377;-71
2023/05/18 06:45:00;;;;;;;;;;;;;;;18.80;42.50;102954.63;5054341;28;19919;-72
2023/05/18 06:47:25;;;;;;;;;;;;;;;18.80;42.78;102958.19;5044348;28;19917;-70
2023/05/18 06:49:50;;;;;;;;;;;;;;;18.81;42.98;102961.72;5054287;28;19919;-71
2023/05/18 06:52:15;;;;;;;;;;;;;;;18.80;42.98;102950.09;5051654;28;19924;-70
2023/05/18 06:54:41;;;;;;;;;;;;;;;18.81;42.50;102956.34;5055194;28;19923;-70
2023/05/18 06:57:06;;;;;;;;;;;;;;;18.81;42.77;102961.72;5055700;28;19917;-71
2023/05/18 06:59:33;;;;;;;;;;;;;;;18.81;42.74;102962.59;5039337;28;19921;-73
2023/05/18 07:01:58;;;;;;;;;;;;;;;18.81;42.74;102965.28;5055084;28;19913;-70
2023/05/18 07:04:23;;;;;;;;;;;;;;;18.81;42.57;102961.72;5057658;28;19920;-70
2023/05/18 07:06:48;;;;;;;;;;;;;;;18.81;42.78;102976.06;5055158;28;19912;-69
2023/05/18 07:09:14;;;;;;;;;;;;;;;18.81;42.48;102969.81;5036122;28;19916;-69
2023/05/18 07:11:39;;;;;;;;;;;;;;;18.81;42.57;102969.81;5055290;28;19960;-70
2023/05/18 07:14:05;;;;;;;;;;;;;;;18.81;42.78;102964.41;5054250;28;19925;-70
2023/05/18 07:16:30;;;;;;;;;;;;;;;18.81;42.61;102959.88;5058833;28;19960;-70
2023/05/18 07:18:56;;;;;;;;;;;;;;;18.81;42.62;102964.41;5038121;28;20381;-69
2023/05/18 07:21:21;;;;;;;;;;;;;;;18.81;42.69;102964.41;5035191;28;19917;-71
2023/05/18 07:23:47;;;;;;;;;;;;;;;18.82;42.88;102968.81;5051242;28;19923;-71
2023/05/18 07:26:12;;;;;;;;;;;;;;;18.82;42.56;102963.44;5041181;28;19941;-70
2023/05/18 07:28:37;;;;;;;;;;;;;;;18.82;42.93;102967.03;5054250;28;19932;-71
2023/05/18 07:31:03;;;;;;;;;;;;;;;18.83;42.81;102963.34;5018041;28;19968;-70
2023/05/18 07:33:28;;;;;;;;;;;;;;;18.83;42.83;102967.88;5025920;28;19944;-70
2023/05/18 07:35:53;;;;;;;;;;;;;;;18.84;42.53;102966.91;5058445;28;19917;-70
2023/05/18 07:38:18;;;;;;;;;;;;;;;18.83;42.74;102967.88;5045393;28;19928;-70
2023/05/18 07:40:43;;;;;;;;;;;;;;;18.84;42.79;102967.75;5053106;28;20393;-69
2023/05/18 07:43:09;;;;;;;;;;;;;;;18.85;42.61;102957.81;5041631;28;19936;-70
2023/05/18 07:45:34;;;;;;;;;;;;;;;18.85;42.76;102972.16;5050788;28;19976;-69
2023/05/18 07:48:00;;;;;;;;;;;;;;;18.86;42.79;102967.63;5050006;28;19984;-69
2023/05/18 07:50:25;;;;;;;;;;;;;;;18.87;42.93;102978.31;5052123;28;19913;-70
2023/05/18 07:52:50;;;;;;;;;;;;;;;18.89;43.05;102980.88;5050179;28;20266;-70
2023/05/18 07:55:16;;;;;;;;;;;;;;;18.90;43.06;102975.38;5050592;28;19940;-70
2023/05/18 07:57:41;;;;;;;;;;;;;;;18.93;43.01;102971.56;5055556;28;19977;-71
2023/05/18 08:00:07;;;;;;;;;;;;;;;18.94;43.01;102978.66;5056294;28;20023;-71
2023/05/18 08:02:33;;;;;;;;;;;;;;;18.93;42.97;102983.19;5050126;28;20055;-70
2023/05/18 08:04:58;;;;;;;;;;;;;;;18.94;43.09;102982.22;5059050;28;19917;-70
2023/05/18 08:07:25;;;;;;;;;;;;;;;18.97;43.11;102973.06;5056896;28;19931;-70
2023/05/18 08:09:50;;;;;;;;;;;;;;;18.97;42.97;102976.59;5051816;28;19948;-70
2023/05/18 08:12:15;;;;;;;;;;;;;;;18.98;43.01;102978.31;5055165;28;19924;-70
2023/05/18 08:14:40;;;;;;;;;;;;;;;19.01;43.03;102979.06;5050724;28;20460;-70
2023/05/18 08:17:06;;;;;;;;;;;;;;;19.02;43.04;102980.78;5049670;28;20432;-69
2023/05/18 08:19:31;;;;;;;;;;;;;;;19.03;42.93;102987.88;5048245;28;19923;-70
2023/05/18 08:21:56;;;;;;;;;;;;;;;19.04;42.98;102987.78;5052170;28;19913;-71
2023/05/18 08:24:21;;;;;;;;;;;;;;;19.05;43.02;102986.78;5049514;28;20369;-70
2023/05/18 08:26:47;;;;;;;;;;;;;;;19.07;42.84;102989.34;5053190;28;19935;-70
2023/05/18 08:29:12;;;;;;;;;;;;;;;19.09;42.91;102987.41;5049846;28;19920;-69
2023/05/18 08:31:37;;;;;;;;;;;;;;;19.09;42.96;102990.13;5052479;28;19924;-69
2023/05/18 08:34:03;;;;;;;;;;;;;;;19.10;43.06;102981.91;5053368;28;19966;-70
2023/05/18 08:36:29;;;;;;;;;;;;;;;19.11;42.68;102980.06;5050295;28;19932;-70
2023/05/18 08:38:54;;;;;;;;;;;;;;;19.11;42.73;102980.91;5035005;28;19973;-70
2023/05/18 08:41:25;;;;;;;;;;;;;;;19.13;42.84;102986.19;5048834;28;19921;-69
2023/05/18 08:43:58;;;;;;;;;;;;;;;19.13;43.02;102981.66;5035765;28;19917;-68
2023/05/18 08:46:33;;;;;;;;;;;;;;;19.14;42.79;102980.69;5036723;28;19959;-69
2023/05/18 08:48:58;;;;;;;;;;;;;;;19.15;43.07;102981.53;5050754;28;19919;-69
2023/05/18 08:51:23;;;;;;;;;;;;;;;19.14;42.97;102986.06;5044659;28;19956;-70
2023/05/18 08:53:51;;;;;;;;;;;;;;;19.16;43.09;102983.28;5034663;28;19938;-69
2023/05/18 08:56:16;;;;;;;;;;;;;;;19.16;42.68;102981.44;5050616;28;19921;-68
2023/05/18 08:58:42;;;;;;;;;;;;;;;19.17;42.77;102979.59;5041914;28;19929;-71
2023/05/18 09:01:08;;;;;;;;;;;;;;;19.18;42.67;102978.59;5054509;28;19923;-73
2023/05/18 09:03:33;;;;;;;;;;;;;;;19.18;42.85;102971.38;5032093;28;19939;-71
2023/05/18 09:05:58;;;;;;;;;;;;;;;19.19;42.68;102966.84;5035732;28;19928;-70
2023/05/18 09:08:23;;;;;;;;;;;;;;;19.20;42.83;102968.56;5048346;28;19917;-69
2023/05/18 09:10:48;;;;;;;;;;;;;;;19.19;42.84;102964.13;5044763;28;19913;-69
2023/05/18 09:13:14;;;;;;;;;;;;;;;19.19;42.71;102956.91;5031358;28;19928;-70
2023/05/18 09:15:39;;;;;;;;;;;;;;;19.20;42.97;102960.50;5033522;28;19917;-68
2023/05/18 09:18:04;;;;;;;;;;;;;;;19.21;42.57;102956.81;5047839;28;19952;-68
2023/05/18 09:20:30;;;;;;;;;;;;;;;19.20;42.73;102960.50;5047940;28;19917;-68
2023/05/18 09:22:55;;;;;;;;;;;;;;;19.20;42.94;102961.34;5049610;28;19920;-69
2023/05/18 09:25:20;;;;;;;;;;;;;;;19.20;42.71;102955.09;5045332;28;20405;-69
2023/05/18 09:27:46;;;;;;;;;;;;;;;19.20;42.70;102955.94;5054347;28;19913;-69
2023/05/18 09:30:12;;;;;;;;;;;;;;;19.20;42.60;102949.69;5042175;28;19963;-69
2023/05/18 09:32:37;;;;;;;;;;;;;;;19.20;42.73;102937.06;5056451;28;19917;-69
2023/05/18 09:35:03;;;;;;;;;;;;;;;19.19;42.94;102946.13;5032104;28;19980;-69
2023/05/18 09:37:28;;;;;;;;;;;;;;;19.20;43.00;102945.16;5051506;28;19931;-69
2023/05/18 09:39:57;;;;;;;;;;;;;;;19.20;42.70;102942.47;5033660;28;19921;-69
2023/05/18 09:42:27;;;;;;;;;;;;;;;19.21;42.58;102946.00;5053123;28;19920;-70
2023/05/18 09:44:52;;;;;;;;;;;;;;;19.20;42.94;102941.59;5048813;28;19939;-69
2023/05/18 09:47:17;;;;;;;;;;;;;;;19.21;42.72;102936.09;5034921;28;20015;-69
2023/05/18 09:49:42;;;;;;;;;;;;;;;19.21;42.99;102941.47;5054680;28;20527;-69
2023/05/18 09:52:08;;;;;;;;;;;;;;;19.21;43.06;102930.69;5052807;28;19921;-72
2023/05/18 09:54:34;;;;;;;;;;;;;;;19.22;43.09;102928.84;5057750;28;19925;-70
2023/05/18 09:56:59;;;;;;;;;;;;;;;19.22;42.82;102932.41;5053888;28;20305;-69
2023/05/18 09:59:25;;;;;;;;;;;;;;;19.23;43.19;102933.25;5044640;28;19963;-70
2023/05/18 10:01:57;;;;;;;;;;;;;;;19.23;43.24;102922.47;5058876;28;19925;-70
2023/05/18 10:04:22;;;;;;;;;;;;;;;19.23;43.24;102928.72;5060301;28;19917;-71
2023/05/18 10:06:51;;;;;;;;;;;;;;;19.24;43.27;102916.09;5056730;28;19928;-70
2023/05/18 10:09:16;;;;;;;;;;;;;;;19.25;43.19;102916.97;5053345;28;19939;-71
2023/05/18 10:11:42;;;;;;;;;;;;;;;19.26;43.49;102907.91;5040609;28;19917;-70
2023/05/18 10:14:10;;;;;;;;;;;;;;;19.27;43.24;102912.28;5051722;28;19988;-71
2023/05/18 10:16:35;;;;;;;;;;;;;;;19.27;43.49;102912.28;5056673;28;19924;-71
2023/05/18 10:19:00;;;;;;;;;;;;;;;19.28;43.29;102905.91;5046533;28;19917;-70
2023/05/18 10:21:26;;;;;;;;;;;;;;;19.28;43.48;102904.06;5057419;28;19921;-70
2023/05/18 10:23:51;;;;;;;;;;;;;;;19.30;43.59;102912.06;5053760;28;19981;-70
2023/05/18 10:26:17;;;;;;;;;;;;;;;19.30;43.34;102907.53;5045542;28;19921;-68
2023/05/18 10:28:43;;;;;;;;;;;;;;;19.31;43.61;102909.22;5039530;28;19952;-73
2023/05/18 10:31:09;;;;;;;;;;;;;;;19.32;43.44;102904.69;5055330;28;19970;-71
2023/05/18 10:33:35;;;;;;;;;;;;;;;19.32;43.66;102900.16;5039308;28;19917;-72
2023/05/18 10:36:01;;;;;;;;;;;;;;;19.34;43.77;102894.66;5046359;28;19924;-70
2023/05/18 10:38:27;;;;;;;;;;;;;;;19.35;43.66;102896.38;5035034;28;19976;-73
2023/05/18 10:40:54;;;;;;;;;;;;;;;19.36;43.51;102893.53;5035925;28;19947;-69
2023/05/18 10:43:20;;;;;;;;;;;;;;;19.37;43.88;102908.75;5053811;28;19913;-70
2023/05/18 10:45:46;;;;;;;;;;;;;;;19.38;43.71;102906.91;5051815;28;19928;-70
2023/05/18 10:48:11;;;;;;;;;;;;;;;19.39;43.91;102898.69;5054881;28;19916;-70
2023/05/18 10:50:36;;;;;;;;;;;;;;;19.39;43.59;102904.09;5054577;28;19945;-70
2023/05/18 10:53:01;;;;;;;;;;;;;;;19.42;43.68;102903.00;5048898;28;19913;-70
2023/05/18 10:55:28;;;;;;;;;;;;;;;19.41;43.70;102896.75;5058765;28;19943;-70
2023/05/18 10:57:56;;;;;;;;;;;;;;;19.42;43.71;102898.44;5052230;28;19924;-70
2023/05/18 11:00:21;;;;;;;;;;;;;;;19.44;43.40;102901.00;5038358;28;19976;-70
2023/05/18 11:02:46;;;;;;;;;;;;;;;19.44;43.48;102898.31;5054021;28;19924;-70
2023/05/18 11:05:11;;;;;;;;;;;;;;;19.45;43.38;102900.03;5032947;28;19984;-69
2023/05/18 11:07:36;;;;;;;;;;;;;;;19.46;43.43;102891.81;5052497;28;19913;-70
2023/05/18 11:10:02;;;;;;;;;;;;;;;19.46;43.31;102883.72;5052109;28;20262;-70
2023/05/18 11:12:27;;;;;;;;;;;;;;;19.47;43.54;102882.75;5051578;28;19917;-70
2023/05/18 11:14:53;;;;;;;;;;;;;;;19.48;43.49;102883.59;5035027;28;19921;-70
2023/05/18 11:17:20;;;;;;;;;;;;;;;19.49;43.51;102874.50;5036467;28;20088;-70
2023/05/18 11:20:07;;;;;;;;;;;;;;;19.51;43.24;102880.66;5045907;28;19917;-69
2023/05/18 11:22:46;;;;;;;;;;;;;;;19.54;43.38;102882.22;5058789;28;20051;-70
2023/05/18 11:25:32;;;;;;;;;;;;;;;19.55;43.33;102875.88;5033157;28;19980;-71
2023/05/18 11:28:01;;;;;;;;;;;;;;;19.57;43.45;102873.88;5049042;28;19940;-72
2023/05/18 11:30:26;;;;;;;;;;;;;;;19.58;43.63;102876.50;5052529;28;19909;-71
2023/05/18 11:32:51;;;;;;;;;;;;;;;19.60;43.68;102873.66;5052692;28;19917;-71
2023/05/18 11:35:21;;;;;;;;;;;;;;;19.61;43.63;102865.44;5053122;28;19913;-71
2023/05/18 11:37:46;;;;;;;;;;;;;;;19.63;43.88;102859.94;5046015;28;19913;-71
2023/05/18 11:40:13;;;;;;;;;;;;;;;19.63;43.80;102850.00;5050858;28;19970;-71
2023/05/18 11:42:38;;;;;;;;;;;;;;;19.65;43.69;102858.81;5034384;28;19927;-70
2023/05/18 11:45:07;;;;;;;;;;;;;;;19.66;43.67;102854.28;5052027;28;19948;-71
2023/05/18 11:47:32;;;;;;;;;;;;;;;19.68;43.88;102853.19;5050765;28;20396;-71
2023/05/18 11:49:59;;;;;;;;;;;;;;;19.70;43.96;102853.03;5058702;28;20385;-71
2023/05/18 11:52:24;;;;;;;;;;;;;;;19.71;43.81;102846.69;5032397;28;19917;-72
2023/05/18 11:54:52;;;;;;;;;;;;;;;19.75;43.77;102844.56;5057847;28;19975;-70
2023/05/18 11:57:18;;;;;;;;;;;;;;;19.75;44.22;102849.97;5052334;28;20259;-70
2023/05/18 11:59:47;;;;;;;;;;;;;;;19.76;44.04;102855.25;5049872;28;20428;-70
2023/05/18 12:02:17;;;;;;;;;;;;;;;19.78;44.13;102853.25;5055474;28;19924;-70
2023/05/18 12:04:43;;;;;;;;;;;;;;;19.78;44.03;102850.56;5050842;28;19917;-70
2023/05/18 12:07:09;;;;;;;;;;;;;;;19.80;44.15;102851.31;5050971;28;19917;-71
2023/05/18 12:09:34;;;;;;;;;;;;;;;19.81;43.92;102835.97;5050714;28;19917;-70
2023/05/18 12:11:59;;;;;;;;;;;;;;;19.82;43.98;102843.06;5034061;28;19917;-71
2023/05/18 12:14:25;;;;;;;;;;;;;;;19.83;44.25;102842.94;5028541;28;19930;-70
2023/05/18 12:16:50;;;;;;;;;;;;;;;19.84;44.15;102844.69;5033500;28;19924;-71
2023/05/18 12:19:16;;;;;;;;;;;;;;;19.86;44.02;102839.13;5029759;28;19917;-71
2023/05/18 12:21:43;;;;;;;;;;;;;;;19.86;44.25;102831.03;5042426;28;20605;-71
2023/05/18 12:24:08;;;;;;;;;;;;;;;19.87;44.02;102832.75;5033356;28;19935;-70
2023/05/18 12:26:33;;;;;;;;;;;;;;;19.87;44.29;102821.94;5035504;28;19925;-70
2023/05/18 12:28:58;;;;;;;;;;;;;;;19.87;44.07;102825.50;5034312;28;19917;-70